Terminal Aerodrome Forecast
Issued by NWS Omaha/Valley, NE

Home | Current Version | Previous Version | Text Only | Print | Product List | Glossary On
Versions: 1 2 3 4 5 6 7 8 9 10 11 12 13 14 15 16 17 18 19 20 21 22 23 24 25 26 27 28 29
000
FTUS43 KOAX 142320
TAFOMA
TAF
KOMA 142320Z 1500/1524 14008KT P6SM BKN050
     FM150300 11006KT P6SM BKN040
      TEMPO 1506/1510 3SM -TSRA BKN025CB
     FM151000 02007KT 5SM -SHRA OVC025
     FM151200 01012KT 6SM -SHRA OVC015
     FM151600 01011G18KT P6SM SCT030
     FM152200 01007KT P6SM SKC=

USA.gov is the U.S. government's official web portal to all federal, state and local government web resources and services.